createdAt,value
2024-02-14T00:00:16.426Z,-2.80
2024-02-14T00:03:14.944Z,-2.70
2024-02-14T00:06:15.295Z,-2.70
2024-02-14T00:09:13.681Z,-2.70
2024-02-14T00:12:13.482Z,-2.70
2024-02-14T00:15:12.103Z,-2.70
2024-02-14T00:18:11.159Z,-2.60
2024-02-14T00:21:09.546Z,-2.70
2024-02-14T00:24:08.426Z,-2.70
2024-02-14T00:27:06.966Z,-2.70
2024-02-14T00:30:06.393Z,-2.60
2024-02-14T00:33:05.198Z,-2.60
2024-02-14T00:36:03.985Z,-2.50
2024-02-14T00:39:02.634Z,-2.40
2024-02-14T00:42:05.643Z,-2.40
2024-02-14T00:45:05.050Z,-2.30
2024-02-14T00:48:06.092Z,-2.30
2024-02-14T00:51:04.620Z,-2.20
2024-02-14T00:54:03.440Z,-2.10
2024-02-14T00:57:01.860Z,-2.00
2024-02-14T01:00:01.843Z,-2.00
2024-02-14T01:03:00.769Z,-1.90
2024-02-14T01:05:59.360Z,-1.90
2024-02-14T01:08:57.785Z,-1.80
2024-02-14T01:11:56.295Z,-1.70
2024-02-14T01:14:55.463Z,-1.70
2024-02-14T01:17:53.995Z,-1.70
2024-02-14T01:20:52.673Z,-1.60
2024-02-14T01:23:51.260Z,-1.60
2024-02-14T01:26:49.548Z,-1.70
2024-02-14T01:29:48.054Z,-1.50
2024-02-14T01:32:46.633Z,-1.50
2024-02-14T01:35:48.006Z,-1.50
2024-02-14T01:38:47.076Z,-1.50
2024-02-14T01:41:50.366Z,-1.40
2024-02-14T01:44:48.672Z,-1.50
2024-02-14T01:47:47.386Z,-1.50
2024-02-14T01:50:45.957Z,-1.60
2024-02-14T01:53:44.906Z,-1.60
2024-02-14T01:56:44.682Z,-1.70
2024-02-14T01:59:43.253Z,-1.70
2024-02-14T02:02:41.791Z,-1.80
2024-02-14T02:05:40.446Z,-1.80
2024-02-14T02:08:38.929Z,-1.90
2024-02-14T02:11:53.662Z,-2.00
2024-02-14T02:14:52.046Z,-2.00
2024-02-14T02:18:03.327Z,-2.00
2024-02-14T02:21:02.596Z,-2.00
2024-02-14T02:24:01.114Z,-2.00
2024-02-14T02:26:59.529Z,-2.10
2024-02-14T02:29:58.031Z,-2.10
2024-02-14T02:32:56.527Z,-2.00
2024-02-14T02:35:55.096Z,-2.00
2024-02-14T02:38:53.738Z,-2.00
2024-02-14T02:41:52.462Z,-1.90
2024-02-14T02:44:53.763Z,-1.90
2024-02-14T02:47:53.701Z,-1.80
2024-02-14T02:50:52.911Z,-1.70
2024-02-14T02:53:51.554Z,-1.60
2024-02-14T02:56:49.854Z,-1.60
2024-02-14T02:59:50.333Z,-1.50
2024-02-14T03:02:48.965Z,-1.40
2024-02-14T03:05:47.694Z,-1.40
2024-02-14T03:08:46.178Z,-1.40
2024-02-14T03:11:44.714Z,-1.40
2024-02-14T03:14:45.048Z,-1.40
2024-02-14T03:17:44.512Z,-1.50
2024-02-14T03:20:42.946Z,-1.50
2024-02-14T03:23:41.960Z,-1.50
2024-02-14T03:26:40.363Z,-1.50
2024-02-14T03:29:40.900Z,-1.50
2024-02-14T03:32:39.267Z,-1.50
2024-02-14T03:35:37.895Z,-1.40
2024-02-14T03:38:37.437Z,-1.30
2024-02-14T03:41:36.082Z,-1.30
2024-02-14T03:44:34.695Z,-1.20
2024-02-14T03:47:34.744Z,-1.10
2024-02-14T03:50:34.634Z,-1.00
2024-02-14T03:53:35.267Z,-1.00
2024-02-14T03:56:34.586Z,-0.90
2024-02-14T03:59:34.652Z,-0.80
2024-02-14T04:02:33.715Z,-0.70
2024-02-14T04:05:32.527Z,-0.60
2024-02-14T04:08:31.574Z,-0.40
2024-02-14T04:11:30.181Z,-0.20
2024-02-14T04:14:28.696Z,0.10
2024-02-14T04:17:27.374Z,0.10
2024-02-14T04:20:25.891Z,0.20
2024-02-14T04:23:25.048Z,0.30
2024-02-14T04:26:24.856Z,0.30
2024-02-14T04:29:23.324Z,0.40
2024-02-14T04:32:21.772Z,0.60
2024-02-14T04:35:22.528Z,0.70
2024-02-14T04:38:21.653Z,0.70
2024-02-14T04:41:20.225Z,0.70
2024-02-14T04:44:18.531Z,0.80
2024-02-14T04:47:17.025Z,0.80
2024-02-14T04:50:15.908Z,0.80
2024-02-14T04:53:14.378Z,0.90
2024-02-14T04:56:12.841Z,1.00
2024-02-14T04:59:11.450Z,1.10
2024-02-14T05:02:09.773Z,1.10
2024-02-14T05:05:10.309Z,1.10
2024-02-14T05:08:09.106Z,1.20
2024-02-14T05:11:07.743Z,1.30
2024-02-14T05:14:06.016Z,1.40
2024-02-14T05:17:04.620Z,1.60
2024-02-14T05:20:02.985Z,1.70
2024-02-14T05:23:01.912Z,1.80
2024-02-14T05:26:00.195Z,2.10
2024-02-14T05:28:58.680Z,2.10
2024-02-14T05:31:57.365Z,2.30
2024-02-14T05:34:56.484Z,2.40
2024-02-14T05:37:56.277Z,2.50
2024-02-14T05:40:54.820Z,2.80
2024-02-14T05:43:53.221Z,2.80
2024-02-14T05:46:51.651Z,2.80
2024-02-14T05:49:50.011Z,2.70
2024-02-14T05:52:48.547Z,2.70
2024-02-14T05:55:46.851Z,2.70
2024-02-14T05:58:45.337Z,2.60
2024-02-14T06:01:43.646Z,2.60
2024-02-14T06:04:44.918Z,2.60
2024-02-14T06:07:43.955Z,2.50
2024-02-14T06:10:42.437Z,2.50
2024-02-14T06:13:41.983Z,2.40
2024-02-14T06:16:41.004Z,2.30
2024-02-14T06:19:41.283Z,2.30
2024-02-14T06:22:45.148Z,2.20
2024-02-14T06:25:49.055Z,2.20
2024-02-14T06:28:48.129Z,2.30
2024-02-14T06:31:46.700Z,2.40
2024-02-14T06:34:45.409Z,2.50
2024-02-14T06:37:48.995Z,2.60
2024-02-14T06:40:54.403Z,2.70
2024-02-14T06:43:52.766Z,2.80
2024-02-14T06:46:51.365Z,2.90
2024-02-14T06:49:51.278Z,3.10
2024-02-14T06:52:49.749Z,3.30
2024-02-14T06:55:48.144Z,3.70
2024-02-14T06:58:46.952Z,4.10
2024-02-14T07:01:45.291Z,4.40
2024-02-14T07:04:43.766Z,4.50
2024-02-14T07:07:42.454Z,4.60
2024-02-14T07:10:41.418Z,4.60
2024-02-14T07:13:39.873Z,4.60
2024-02-14T07:16:38.332Z,4.70
2024-02-14T07:19:37.235Z,4.70
2024-02-14T07:22:36.106Z,4.80
2024-02-14T07:25:34.567Z,4.80
2024-02-14T07:28:34.256Z,4.80
2024-02-14T07:31:33.464Z,4.90
2024-02-14T07:34:32.096Z,4.90
2024-02-14T07:37:30.572Z,4.90
2024-02-14T07:40:30.009Z,4.90
2024-02-14T07:43:28.530Z,4.90
2024-02-14T07:46:29.125Z,4.80
2024-02-14T07:49:27.642Z,4.70
2024-02-14T07:52:27.067Z,4.60
2024-02-14T07:55:26.056Z,4.80
2024-02-14T07:58:24.700Z,4.80
2024-02-14T08:01:23.117Z,4.80
2024-02-14T08:04:21.645Z,4.80
2024-02-14T08:07:20.109Z,4.80
2024-02-14T08:10:18.895Z,4.80
2024-02-14T08:13:19.073Z,4.70
2024-02-14T08:16:17.661Z,4.70
2024-02-14T08:19:17.774Z,4.70
2024-02-14T08:22:16.942Z,4.60
2024-02-14T08:25:15.360Z,4.60
2024-02-14T08:28:13.929Z,4.50
2024-02-14T08:31:13.668Z,4.50
2024-02-14T08:34:12.535Z,4.50
2024-02-14T08:37:10.985Z,4.50
2024-02-14T08:40:10.228Z,4.40
2024-02-14T08:43:08.888Z,4.50
2024-02-14T08:46:13.714Z,4.50
2024-02-14T08:49:12.748Z,4.50
2024-02-14T08:52:11.577Z,4.50
2024-02-14T08:55:16.236Z,4.60
2024-02-14T08:58:14.757Z,4.60
2024-02-14T09:01:15.995Z,4.60
2024-02-14T09:04:14.869Z,4.70
2024-02-14T09:07:14.537Z,4.70
2024-02-14T09:10:14.729Z,4.70
2024-02-14T09:13:13.123Z,4.70
2024-02-14T09:16:12.951Z,4.80
2024-02-14T09:19:14.147Z,4.80
2024-02-14T09:22:12.734Z,4.70
2024-02-14T09:25:11.754Z,4.70
2024-02-14T09:28:11.173Z,4.70
2024-02-14T09:31:11.784Z,4.60
2024-02-14T09:34:10.892Z,4.50
2024-02-14T09:37:09.427Z,4.50
2024-02-14T09:40:09.516Z,4.40
2024-02-14T09:43:12.120Z,4.30
2024-02-14T09:46:11.010Z,4.30
2024-02-14T09:49:10.765Z,4.20
2024-02-14T09:52:13.438Z,4.10
2024-02-14T09:55:14.077Z,4.10
2024-02-14T09:58:12.986Z,4.00
2024-02-14T10:01:11.364Z,3.90
2024-02-14T10:04:10.016Z,3.80
2024-02-14T10:07:08.362Z,3.80
2024-02-14T10:10:10.182Z,3.80
2024-02-14T10:13:09.656Z,3.80
2024-02-14T10:16:10.428Z,3.80
2024-02-14T10:19:17.889Z,3.80
2024-02-14T10:22:17.708Z,4.00
2024-02-14T10:25:16.722Z,4.00
2024-02-14T10:28:15.188Z,3.90
2024-02-14T10:31:17.699Z,3.80
2024-02-14T10:34:17.452Z,3.70
2024-02-14T10:37:18.306Z,3.50
2024-02-14T10:40:16.733Z,3.50
2024-02-14T10:43:15.769Z,3.40
2024-02-14T10:46:27.296Z,3.50
2024-02-14T10:49:31.089Z,3.50
2024-02-14T10:52:35.380Z,3.50
2024-02-14T10:55:35.071Z,3.40
2024-02-14T10:58:35.352Z,3.30
2024-02-14T11:01:34.732Z,3.20
2024-02-14T11:04:34.151Z,3.10
2024-02-14T11:07:33.599Z,3.10
2024-02-14T11:10:32.195Z,3.10
2024-02-14T11:13:34.891Z,3.10
2024-02-14T11:16:35.469Z,3.10
2024-02-14T11:19:38.330Z,3.10
2024-02-14T11:22:38.024Z,3.00
2024-02-14T11:25:41.067Z,3.00
2024-02-14T11:28:44.416Z,2.90
2024-02-14T11:31:42.626Z,2.90
2024-02-14T11:34:44.198Z,3.00
2024-02-14T11:37:44.043Z,3.00
2024-02-14T11:40:42.837Z,2.90
2024-02-14T11:43:41.969Z,2.80
2024-02-14T11:46:40.674Z,2.70
2024-02-14T11:49:41.391Z,2.60
2024-02-14T11:52:39.890Z,2.50
2024-02-14T11:55:40.416Z,2.40
2024-02-14T11:58:38.915Z,2.30
2024-02-14T12:01:38.768Z,2.30
2024-02-14T12:04:38.481Z,2.20
2024-02-14T12:07:36.870Z,2.20
2024-02-14T12:10:37.144Z,2.10
2024-02-14T12:13:37.772Z,2.10
2024-02-14T12:16:39.439Z,2.00
2024-02-14T12:19:40.052Z,2.00
2024-02-14T12:22:39.223Z,2.00
2024-02-14T12:25:37.578Z,1.90
2024-02-14T12:28:36.859Z,1.90
2024-02-14T12:31:35.773Z,1.80
2024-02-14T12:34:35.951Z,1.80
2024-02-14T12:37:34.446Z,1.70
2024-02-14T12:40:34.776Z,1.70
2024-02-14T12:43:33.109Z,1.80
2024-02-14T12:46:31.676Z,1.70
2024-02-14T12:49:30.135Z,1.50
2024-02-14T12:52:29.480Z,1.50
2024-02-14T12:55:30.419Z,1.50
2024-02-14T12:58:29.009Z,1.50
2024-02-14T13:01:27.356Z,1.50
2024-02-14T13:04:26.409Z,1.50
2024-02-14T13:07:24.799Z,1.50
2024-02-14T13:10:24.115Z,1.50
2024-02-14T13:13:22.721Z,1.50
2024-02-14T13:16:22.528Z,1.40
2024-02-14T13:19:21.164Z,1.40
2024-02-14T13:22:20.280Z,1.40
2024-02-14T13:25:18.708Z,1.30
2024-02-14T13:28:17.212Z,1.30
2024-02-14T13:31:16.309Z,1.30
2024-02-14T13:34:16.549Z,1.20
2024-02-14T13:37:18.375Z,1.20
2024-02-14T13:40:17.214Z,1.20
2024-02-14T13:43:21.281Z,1.10
2024-02-14T13:46:20.736Z,1.10
2024-02-14T13:49:23.482Z,1.10
2024-02-14T13:52:22.422Z,1.10
2024-02-14T13:55:21.003Z,1.20
2024-02-14T13:58:34.097Z,1.20
2024-02-14T14:01:39.779Z,1.20
2024-02-14T14:04:43.756Z,1.20
2024-02-14T14:16:26.646Z,1.30
2024-02-14T14:19:30.929Z,1.20
2024-02-14T14:22:31.915Z,1.10
2024-02-14T14:25:33.000Z,1.10
2024-02-14T14:28:35.327Z,1.10
2024-02-14T14:31:33.933Z,1.20
2024-02-14T14:34:34.281Z,1.30
2024-02-14T14:37:33.041Z,1.40
2024-02-14T14:40:31.955Z,1.40
2024-02-14T14:43:30.238Z,1.40
2024-02-14T14:46:28.704Z,1.40
2024-02-14T14:49:27.074Z,1.50
2024-02-14T14:52:25.546Z,1.40
2024-02-14T14:55:23.770Z,1.30
2024-02-14T14:58:25.208Z,1.30
2024-02-14T15:01:24.876Z,1.30
2024-02-14T15:04:23.418Z,1.20
2024-02-14T15:07:22.874Z,1.30
2024-02-14T15:10:21.631Z,1.20
2024-02-14T15:13:20.829Z,1.20
2024-02-14T15:16:19.631Z,1.10
2024-02-14T15:19:18.084Z,1.10
2024-02-14T15:22:16.759Z,0.90
2024-02-14T15:25:15.041Z,1.00
2024-02-14T15:28:16.257Z,1.00
2024-02-14T15:31:30.062Z,1.00
2024-02-14T15:34:28.636Z,0.90
2024-02-14T15:37:27.973Z,0.80
2024-02-14T15:40:27.646Z,0.70
2024-02-14T15:43:27.040Z,0.80
2024-02-14T15:46:25.897Z,0.90
2024-02-14T15:49:24.402Z,0.80
2024-02-14T15:52:22.818Z,1.00
2024-02-14T15:55:21.029Z,1.10
2024-02-14T15:58:19.391Z,1.20
2024-02-14T16:01:19.771Z,1.30
2024-02-14T16:04:18.417Z,1.20
2024-02-14T16:07:16.656Z,1.10
2024-02-14T16:10:16.631Z,1.20
2024-02-14T16:13:19.689Z,1.40
2024-02-14T16:17:12.313Z,1.60
2024-02-14T16:20:00.900Z,1.60
2024-02-14T16:22:59.529Z,1.70
2024-02-14T16:25:57.764Z,1.50
2024-02-14T16:28:56.071Z,1.30
2024-02-14T16:31:54.285Z,1.30
2024-02-14T16:34:52.803Z,1.20
2024-02-14T16:37:51.227Z,1.20
2024-02-14T16:40:50.932Z,1.10
2024-02-14T16:43:49.200Z,1.10
2024-02-14T16:46:48.930Z,1.20
2024-02-14T16:49:47.223Z,1.30
2024-02-14T16:52:46.697Z,1.40
2024-02-14T16:55:44.932Z,1.60
2024-02-14T16:58:43.310Z,1.70
2024-02-14T17:01:41.595Z,1.80
2024-02-14T17:04:41.406Z,1.90
2024-02-14T17:07:39.743Z,1.90
2024-02-14T17:10:38.235Z,1.90
2024-02-14T17:13:36.733Z,2.00
2024-02-14T17:16:35.141Z,2.00
2024-02-14T17:19:33.437Z,2.10
2024-02-14T17:22:32.150Z,2.10
2024-02-14T17:25:30.601Z,2.20
2024-02-14T17:28:28.993Z,2.20
2024-02-14T17:31:27.468Z,2.20
2024-02-14T17:34:28.086Z,2.30
2024-02-14T17:37:26.700Z,2.30
2024-02-14T17:40:25.310Z,2.30
2024-02-14T17:43:23.493Z,2.40
2024-02-14T17:46:24.393Z,2.40
2024-02-14T17:49:23.587Z,2.40
2024-02-14T17:52:23.805Z,2.50
2024-02-14T17:55:22.092Z,2.50
2024-02-14T17:58:22.947Z,2.50
2024-02-14T18:01:21.459Z,2.50
2024-02-14T18:04:21.963Z,2.40
2024-02-14T18:07:22.473Z,2.40
2024-02-14T18:10:20.950Z,2.30
2024-02-14T18:13:19.959Z,2.30
2024-02-14T18:16:18.330Z,2.30
2024-02-14T18:19:17.014Z,2.20
2024-02-14T18:22:15.500Z,2.30
2024-02-14T18:25:14.156Z,2.30
2024-02-14T18:28:12.743Z,2.30
2024-02-14T18:31:14.011Z,2.40
2024-02-14T18:34:12.731Z,2.40
2024-02-14T18:37:12.658Z,2.40
2024-02-14T18:40:11.486Z,2.50
2024-02-14T18:43:09.704Z,2.60
2024-02-14T18:46:10.685Z,2.60
2024-02-14T18:49:09.453Z,2.70
2024-02-14T18:52:07.995Z,2.60
2024-02-14T18:55:06.807Z,2.60
2024-02-14T18:58:05.380Z,2.60
2024-02-14T19:01:03.691Z,2.50
2024-02-14T19:04:05.651Z,2.60
2024-02-14T19:07:04.341Z,2.60
2024-02-14T19:10:02.709Z,2.50
2024-02-14T19:13:02.384Z,2.50
2024-02-14T19:16:08.829Z,2.50
2024-02-14T19:19:13.955Z,2.50
2024-02-14T19:22:12.823Z,2.50
2024-02-14T19:25:11.099Z,2.50
2024-02-14T19:28:11.388Z,2.60
2024-02-14T19:31:12.768Z,2.60
2024-02-14T19:34:11.388Z,2.60
2024-02-14T19:37:10.271Z,2.60
2024-02-14T19:40:11.639Z,2.60
2024-02-14T19:43:11.790Z,2.60
2024-02-14T19:46:13.019Z,2.60
2024-02-14T19:49:15.398Z,2.60
2024-02-14T19:52:14.011Z,2.60
2024-02-14T19:55:13.482Z,2.60
2024-02-14T19:58:11.993Z,2.60
2024-02-14T20:01:11.102Z,2.50
2024-02-14T20:04:11.436Z,2.60
2024-02-14T20:07:09.624Z,2.60
2024-02-14T20:10:08.582Z,2.70
2024-02-14T20:13:06.868Z,2.80
2024-02-14T20:16:05.956Z,2.80
2024-02-14T20:19:04.379Z,2.90
2024-02-14T20:22:02.857Z,2.90
2024-02-14T20:25:01.991Z,2.90
2024-02-14T20:28:00.358Z,2.80
2024-02-14T20:30:58.959Z,2.80
2024-02-14T20:33:57.448Z,2.90
2024-02-14T20:36:55.840Z,2.90
2024-02-14T20:39:54.320Z,2.90
2024-02-14T20:42:52.520Z,3.00
2024-02-14T20:45:50.925Z,3.00
2024-02-14T20:48:49.502Z,3.10
2024-02-14T20:51:48.092Z,3.10
2024-02-14T20:54:46.337Z,3.10
2024-02-14T20:57:44.892Z,3.00
2024-02-14T21:00:44.972Z,3.10
2024-02-14T21:03:43.269Z,3.20
2024-02-14T21:06:42.114Z,3.20
2024-02-14T21:09:40.725Z,3.00
2024-02-14T21:12:39.073Z,2.80
2024-02-14T21:15:37.631Z,2.80
2024-02-14T21:18:35.864Z,2.90
2024-02-14T21:21:37.526Z,3.00
2024-02-14T21:24:36.201Z,3.00
2024-02-14T21:27:36.521Z,3.10
2024-02-14T21:30:34.705Z,3.20
2024-02-14T21:33:33.479Z,3.30
2024-02-14T21:36:32.111Z,3.30
2024-02-14T21:39:30.565Z,3.30
2024-02-14T21:42:28.825Z,3.30
2024-02-14T21:45:27.118Z,3.30
2024-02-14T21:48:25.892Z,3.30
2024-02-14T21:51:24.325Z,3.40
2024-02-14T21:54:22.606Z,3.40
2024-02-14T21:57:20.935Z,3.40
2024-02-14T22:00:19.354Z,3.50
2024-02-14T22:03:17.651Z,3.50
2024-02-14T22:06:16.484Z,3.50
2024-02-14T22:09:16.928Z,3.50
2024-02-14T22:12:24.609Z,3.30
2024-02-14T22:15:24.655Z,3.20
2024-02-14T22:18:23.023Z,3.20
2024-02-14T22:21:21.475Z,3.30
2024-02-14T22:24:19.862Z,3.40
2024-02-14T22:27:19.736Z,3.40
2024-02-14T22:30:18.219Z,3.30
2024-02-14T22:33:17.201Z,3.10
2024-02-14T22:36:15.567Z,3.00
2024-02-14T22:39:14.016Z,2.80
2024-02-14T22:42:12.515Z,2.70
2024-02-14T22:45:14.653Z,2.60
2024-02-14T22:48:13.072Z,2.50
2024-02-14T22:51:11.680Z,2.30
2024-02-14T22:54:10.330Z,2.30
2024-02-14T22:57:10.026Z,2.40
2024-02-14T23:00:09.799Z,2.30
2024-02-14T23:03:08.876Z,2.30
2024-02-14T23:06:07.365Z,2.30
2024-02-14T23:09:07.331Z,2.20
2024-02-14T23:12:05.739Z,2.20
2024-02-14T23:15:07.394Z,2.30
2024-02-14T23:18:07.013Z,2.30
2024-02-14T23:21:05.531Z,2.20
2024-02-14T23:24:04.199Z,2.10
2024-02-14T23:27:02.768Z,2.10
2024-02-14T23:30:01.077Z,2.10
2024-02-14T23:33:00.432Z,2.10
2024-02-14T23:35:58.873Z,2.10
2024-02-14T23:38:57.291Z,2.20
2024-02-14T23:41:57.069Z,2.40
2024-02-14T23:44:56.376Z,2.50
2024-02-14T23:47:55.918Z,2.70
2024-02-14T23:50:54.363Z,2.80
2024-02-14T23:53:52.571Z,2.90
2024-02-14T23:56:51.041Z,3.10
2024-02-14T23:59:51.177Z,3.10
